createdAt,value
2023-03-03T00:01:48.638Z,99.90
2023-03-03T00:04:15.523Z,99.90
2023-03-03T00:06:42.363Z,99.90
2023-03-03T00:09:09.153Z,99.90
2023-03-03T00:11:36.032Z,99.90
2023-03-03T00:14:02.840Z,99.90
2023-03-03T00:16:39.692Z,99.90
2023-03-03T00:19:17.630Z,99.90
2023-03-03T00:21:49.563Z,99.90
2023-03-03T00:24:37.839Z,99.90
2023-03-03T00:27:36.010Z,99.90
2023-03-03T00:30:03.931Z,99.90
2023-03-03T00:32:56.759Z,99.90
2023-03-03T00:35:35.849Z,99.90
2023-03-03T00:38:17.991Z,99.90
2023-03-03T00:40:46.520Z,99.90
2023-03-03T00:43:36.861Z,99.90
2023-03-03T00:46:03.972Z,99.90
2023-03-03T00:48:44.592Z,99.90
2023-03-03T00:51:33.073Z,99.90
2023-03-03T00:53:59.962Z,99.90
2023-03-03T00:56:27.783Z,99.90
2023-03-03T00:58:54.716Z,99.90
2023-03-03T01:01:21.958Z,99.90
2023-03-03T01:03:48.762Z,99.90
2023-03-03T01:06:16.898Z,99.90
2023-03-03T01:08:43.738Z,99.90
2023-03-03T01:11:17.623Z,99.90
2023-03-03T01:13:47.783Z,99.90
2023-03-03T01:16:14.665Z,99.90
2023-03-03T01:18:44.571Z,99.90
2023-03-03T01:21:12.018Z,99.90
2023-03-03T01:23:39.130Z,99.90
2023-03-03T01:26:06.573Z,99.90
2023-03-03T01:28:34.431Z,99.90
2023-03-03T01:31:04.818Z,99.90
2023-03-03T01:33:33.742Z,99.90
2023-03-03T01:36:01.242Z,99.90
2023-03-03T01:38:28.155Z,99.90
2023-03-03T01:40:59.971Z,99.90
2023-03-03T01:43:29.502Z,99.90
2023-03-03T01:45:59.294Z,99.90
2023-03-03T01:48:34.803Z,99.90
2023-03-03T01:51:25.636Z,99.90
2023-03-03T01:54:05.774Z,99.90
2023-03-03T01:56:33.296Z,99.90
2023-03-03T01:59:18.817Z,99.90
2023-03-03T02:01:47.721Z,99.90
2023-03-03T02:04:15.524Z,99.90
2023-03-03T02:06:49.765Z,99.90
2023-03-03T02:09:43.811Z,99.90
2023-03-03T02:12:15.567Z,99.90
2023-03-03T02:14:42.505Z,99.90
2023-03-03T02:17:09.350Z,99.90
2023-03-03T02:19:50.926Z,99.90
2023-03-03T02:22:27.218Z,99.90
2023-03-03T02:25:00.821Z,99.90
2023-03-03T02:27:31.604Z,99.90
2023-03-03T02:29:58.708Z,99.90
2023-03-03T02:32:25.599Z,99.90
2023-03-03T02:34:53.152Z,99.90
2023-03-03T02:37:21.013Z,99.90
2023-03-03T02:39:48.193Z,99.90
2023-03-03T02:42:27.891Z,99.90
2023-03-03T02:44:54.714Z,99.90
2023-03-03T02:47:21.546Z,99.90
2023-03-03T02:49:48.356Z,99.90
2023-03-03T02:52:18.035Z,99.90
2023-03-03T02:54:44.890Z,99.90
2023-03-03T02:57:11.697Z,99.90
2023-03-03T02:59:38.576Z,99.90
2023-03-03T03:02:07.285Z,99.90
2023-03-03T03:04:34.463Z,99.90
2023-03-03T03:07:01.440Z,99.90
2023-03-03T03:09:28.592Z,99.90
2023-03-03T03:11:55.571Z,99.90
2023-03-03T03:14:23.874Z,99.90
2023-03-03T03:16:50.799Z,99.90
2023-03-03T03:19:17.617Z,99.90
2023-03-03T03:21:44.500Z,99.90
2023-03-03T03:24:11.420Z,99.90
2023-03-03T03:26:38.249Z,99.90
2023-03-03T03:29:05.131Z,99.90
2023-03-03T03:31:32.066Z,99.90
2023-03-03T03:34:00.602Z,99.90
2023-03-03T03:36:28.265Z,99.90
2023-03-03T03:38:55.311Z,99.90
2023-03-03T03:41:22.111Z,99.90
2023-03-03T03:43:48.987Z,99.90
2023-03-03T03:46:16.167Z,99.90
2023-03-03T03:48:43.013Z,99.90
2023-03-03T03:51:12.586Z,99.90
2023-03-03T03:53:39.530Z,99.90
2023-03-03T03:56:06.930Z,99.90
2023-03-03T03:58:33.836Z,99.90
2023-03-03T04:01:08.633Z,99.90
2023-03-03T04:03:35.940Z,99.90
2023-03-03T04:06:02.766Z,99.90
2023-03-03T04:08:29.602Z,99.90
2023-03-03T04:10:56.773Z,99.90
2023-03-03T04:13:23.794Z,99.90
2023-03-03T04:15:50.661Z,99.90
2023-03-03T04:18:17.538Z,99.90
2023-03-03T04:20:44.347Z,99.90
2023-03-03T04:23:11.415Z,99.90
2023-03-03T04:25:38.363Z,99.90
2023-03-03T04:28:05.836Z,99.90
2023-03-03T04:30:33.029Z,99.90
2023-03-03T04:32:59.873Z,99.90
2023-03-03T04:35:26.892Z,99.90
2023-03-03T04:37:54.054Z,99.90
2023-03-03T04:40:20.948Z,99.90
2023-03-03T04:42:47.848Z,99.90
2023-03-03T04:45:14.796Z,99.90
2023-03-03T04:47:41.736Z,99.90
2023-03-03T04:50:10.227Z,99.90
2023-03-03T04:52:37.365Z,99.90
2023-03-03T04:55:04.987Z,99.90
2023-03-03T04:57:31.982Z,99.90
2023-03-03T04:59:58.832Z,99.90
2023-03-03T05:02:25.696Z,99.90
2023-03-03T05:04:52.819Z,99.90
2023-03-03T05:07:20.821Z,99.90
2023-03-03T05:09:47.663Z,99.90
2023-03-03T05:12:14.532Z,99.90
2023-03-03T05:14:41.612Z,99.90
2023-03-03T05:17:09.173Z,99.90
2023-03-03T05:19:36.045Z,99.90
2023-03-03T05:22:02.962Z,99.90
2023-03-03T05:24:30.382Z,99.90
2023-03-03T05:26:57.269Z,99.90
2023-03-03T05:29:24.215Z,99.90
2023-03-03T05:31:51.236Z,99.90
2023-03-03T05:34:18.096Z,99.90
2023-03-03T05:36:45.036Z,99.90
2023-03-03T05:39:11.944Z,99.90
2023-03-03T05:41:38.964Z,99.90
2023-03-03T05:44:05.849Z,99.90
2023-03-03T05:46:32.732Z,99.90
2023-03-03T05:48:59.604Z,99.90
2023-03-03T05:51:26.666Z,99.90
2023-03-03T05:53:56.325Z,99.90
2023-03-03T05:56:23.353Z,99.90
2023-03-03T05:58:52.358Z,99.90
2023-03-03T06:01:19.302Z,99.90
2023-03-03T06:03:46.170Z,99.90
2023-03-03T06:06:14.120Z,99.90
2023-03-03T06:08:40.951Z,99.90
2023-03-03T06:11:07.810Z,99.90
2023-03-03T06:13:34.644Z,99.90
2023-03-03T06:16:01.570Z,99.90
2023-03-03T06:18:28.416Z,99.90
2023-03-03T06:20:55.974Z,99.90
2023-03-03T06:23:22.897Z,99.90
2023-03-03T06:25:49.777Z,99.90
2023-03-03T06:28:16.605Z,99.90
2023-03-03T06:30:43.610Z,99.90
2023-03-03T06:33:10.680Z,99.90
2023-03-03T06:35:37.649Z,99.90
2023-03-03T06:38:04.499Z,99.90
2023-03-03T06:40:31.336Z,99.90
2023-03-03T06:42:58.130Z,99.90
2023-03-03T06:45:25.025Z,99.90
2023-03-03T06:47:51.931Z,99.90
2023-03-03T06:50:21.017Z,99.90
2023-03-03T06:52:48.057Z,99.90
2023-03-03T06:55:23.274Z,99.90
2023-03-03T06:57:50.128Z,99.90
2023-03-03T07:00:30.855Z,99.90
2023-03-03T07:03:11.606Z,99.90
2023-03-03T07:05:38.897Z,99.90
2023-03-03T07:08:22.796Z,99.90
2023-03-03T07:10:52.007Z,99.90
2023-03-03T07:13:18.674Z,99.90
2023-03-03T07:15:47.225Z,99.90
2023-03-03T07:18:35.057Z,99.90
2023-03-03T07:21:22.365Z,99.90
2023-03-03T07:23:52.615Z,99.90
2023-03-03T07:26:32.882Z,99.90
2023-03-03T07:29:26.337Z,99.90
2023-03-03T07:31:57.257Z,99.90
2023-03-03T07:34:46.626Z,99.90
2023-03-03T07:37:22.343Z,99.90
2023-03-03T07:39:50.783Z,99.90
2023-03-03T07:42:23.134Z,99.90
2023-03-03T07:44:56.743Z,99.90
2023-03-03T07:47:31.344Z,99.90
2023-03-03T07:50:01.630Z,99.90
2023-03-03T07:52:44.300Z,99.90
2023-03-03T07:55:36.425Z,99.90
2023-03-03T07:58:27.588Z,99.90
2023-03-03T08:01:31.747Z,99.90
2023-03-03T08:03:58.669Z,99.90
2023-03-03T08:06:34.976Z,99.90
2023-03-03T08:09:30.280Z,99.90
2023-03-03T08:12:24.972Z,99.90
2023-03-03T08:14:54.179Z,99.90
2023-03-03T08:17:24.396Z,99.90
2023-03-03T08:19:52.960Z,99.90
2023-03-03T08:22:31.908Z,99.90
2023-03-03T08:24:58.863Z,99.90
2023-03-03T08:27:25.708Z,99.90
2023-03-03T08:29:52.566Z,99.90
2023-03-03T08:32:19.789Z,99.90
2023-03-03T08:34:46.781Z,99.90
2023-03-03T08:37:13.699Z,99.90
2023-03-03T08:39:40.713Z,99.90
2023-03-03T08:42:07.660Z,99.90
2023-03-03T08:44:34.550Z,99.90
2023-03-03T08:47:01.403Z,99.90
2023-03-03T08:49:28.414Z,99.90
2023-03-03T08:51:55.595Z,99.90
2023-03-03T08:54:22.535Z,99.90
2023-03-03T08:56:50.168Z,99.90
2023-03-03T08:59:17.184Z,99.90
2023-03-03T09:01:45.516Z,99.90
2023-03-03T09:04:12.541Z,99.90
2023-03-03T09:06:39.913Z,99.90
2023-03-03T09:09:06.922Z,99.90
2023-03-03T09:11:34.140Z,99.90
2023-03-03T09:14:16.146Z,99.90
2023-03-03T09:16:52.066Z,99.90
2023-03-03T09:19:32.456Z,99.90
2023-03-03T09:22:24.639Z,99.90
2023-03-03T09:24:55.507Z,99.90
2023-03-03T09:27:35.349Z,99.90
2023-03-03T09:30:37.252Z,99.90
2023-03-03T09:33:35.974Z,99.90
2023-03-03T09:36:37.386Z,99.90
2023-03-03T09:39:25.772Z,99.90
2023-03-03T09:42:42.925Z,99.90
2023-03-03T09:45:50.351Z,99.90
2023-03-03T09:48:42.081Z,99.90
2023-03-03T09:51:40.484Z,99.90
2023-03-03T09:54:26.347Z,99.90
2023-03-03T09:57:16.809Z,99.90
2023-03-03T09:59:57.549Z,99.90
2023-03-03T10:02:47.729Z,99.90
2023-03-03T10:05:54.719Z,99.90
2023-03-03T10:08:36.160Z,99.90
2023-03-03T10:11:17.160Z,99.90
2023-03-03T10:14:15.158Z,99.90
2023-03-03T10:16:57.699Z,99.90
2023-03-03T10:19:39.428Z,99.90
2023-03-03T10:22:15.168Z,99.90
2023-03-03T10:25:20.390Z,99.90
2023-03-03T10:28:18.342Z,99.90
2023-03-03T10:31:12.180Z,99.90
2023-03-03T10:34:32.605Z,99.90
2023-03-03T10:37:53.394Z,99.90
2023-03-03T10:40:50.227Z,99.90
2023-03-03T10:43:49.120Z,99.90
2023-03-03T10:46:53.002Z,99.90
2023-03-03T10:49:46.905Z,99.90
2023-03-03T10:52:34.052Z,99.90
2023-03-03T10:55:30.805Z,99.90
2023-03-03T10:58:43.771Z,99.90
2023-03-03T11:01:47.567Z,99.90
2023-03-03T11:04:38.537Z,99.90
2023-03-03T11:07:39.233Z,99.90
2023-03-03T11:10:30.201Z,99.90
2023-03-03T11:13:36.623Z,99.90
2023-03-03T11:16:14.901Z,99.90
2023-03-03T11:19:00.618Z,99.90
2023-03-03T11:21:43.068Z,99.90
2023-03-03T11:24:37.575Z,99.90
2023-03-03T11:27:31.525Z,99.90
2023-03-03T11:30:29.005Z,99.90
2023-03-03T11:33:07.406Z,99.90
2023-03-03T11:36:17.008Z,99.90
2023-03-03T11:39:19.073Z,99.90
2023-03-03T11:42:28.518Z,99.90
2023-03-03T11:45:13.859Z,99.90
2023-03-03T11:48:15.972Z,99.90
2023-03-03T11:51:07.461Z,99.90
2023-03-03T11:53:55.480Z,99.90
2023-03-03T11:56:48.888Z,99.90
2023-03-03T11:59:50.834Z,99.90
2023-03-03T12:02:47.156Z,99.90
2023-03-03T12:05:52.206Z,99.90
2023-03-03T12:08:56.866Z,99.90
2023-03-03T12:11:40.483Z,99.90
2023-03-03T12:14:43.954Z,99.90
2023-03-03T12:17:51.442Z,99.90
2023-03-03T12:20:42.849Z,99.90
2023-03-03T12:23:34.685Z,99.90
2023-03-03T12:26:13.186Z,99.90
2023-03-03T12:29:13.653Z,99.90
2023-03-03T12:31:53.468Z,99.90
2023-03-03T12:34:39.056Z,99.60
2023-03-03T12:37:45.209Z,98.80
2023-03-03T12:40:29.113Z,98.40
2023-03-03T12:43:44.054Z,96.50
2023-03-03T12:46:52.577Z,97.20
2023-03-03T12:49:20.109Z,94.70
2023-03-03T12:52:31.341Z,91.10
2023-03-03T12:55:06.038Z,87.30
2023-03-03T12:57:45.180Z,87.00
2023-03-03T13:00:14.885Z,87.70
2023-03-03T13:03:05.460Z,86.40
2023-03-03T13:06:11.810Z,88.80
2023-03-03T13:09:21.067Z,82.90
2023-03-03T13:12:14.425Z,85.20
2023-03-03T13:15:16.296Z,88.50
2023-03-03T13:18:19.793Z,88.30
2023-03-03T13:20:59.161Z,85.40
2023-03-03T13:23:39.346Z,81.00
2023-03-03T13:26:25.784Z,84.60
2023-03-03T13:28:57.119Z,83.20
2023-03-03T13:31:55.589Z,83.10
2023-03-03T13:34:41.891Z,78.50
2023-03-03T13:37:20.897Z,79.70
2023-03-03T13:40:01.932Z,78.60
2023-03-03T13:42:45.042Z,79.00
2023-03-03T13:45:49.630Z,78.70
2023-03-03T13:48:50.531Z,80.20
2023-03-03T13:52:05.744Z,81.30
2023-03-03T13:55:20.476Z,80.70
2023-03-03T13:58:05.794Z,81.40
2023-03-03T14:01:00.847Z,82.70
2023-03-03T14:03:58.362Z,81.00
2023-03-03T14:06:30.127Z,75.80
2023-03-03T14:09:33.502Z,80.80
2023-03-03T14:12:14.952Z,78.10
2023-03-03T14:15:05.870Z,80.50
2023-03-03T14:17:43.802Z,79.60
2023-03-03T14:20:28.336Z,78.00
2023-03-03T14:23:09.539Z,79.20
2023-03-03T14:26:04.284Z,79.00
2023-03-03T14:28:49.756Z,78.90
2023-03-03T14:31:26.840Z,77.80
2023-03-03T14:34:14.977Z,79.20
2023-03-03T14:36:43.885Z,79.70
2023-03-03T14:39:32.999Z,80.20
2023-03-03T14:42:01.619Z,78.20
2023-03-03T14:44:55.412Z,78.40
2023-03-03T14:47:27.861Z,80.10
2023-03-03T14:50:00.700Z,80.10
2023-03-03T14:52:30.553Z,80.80
2023-03-03T14:55:01.422Z,78.70
2023-03-03T14:57:46.793Z,79.90
2023-03-03T15:00:13.812Z,81.20
2023-03-03T15:02:44.754Z,81.50
2023-03-03T15:05:30.440Z,81.00
2023-03-03T15:08:06.380Z,80.40
2023-03-03T15:10:43.099Z,81.50
2023-03-03T15:13:22.152Z,80.90
2023-03-03T15:16:05.550Z,78.70
2023-03-03T15:18:33.804Z,79.60
2023-03-03T15:21:34.378Z,80.40
2023-03-03T15:24:34.954Z,79.80
2023-03-03T15:27:11.143Z,79.90
2023-03-03T15:29:50.896Z,81.70
2023-03-03T15:32:51.599Z,80.80
2023-03-03T15:35:49.070Z,81.70
2023-03-03T15:38:27.152Z,82.90
2023-03-03T15:41:45.912Z,86.20
2023-03-03T15:44:46.302Z,88.50
2023-03-03T15:48:20.790Z,91.20
2023-03-03T15:51:12.775Z,92.50
2023-03-03T15:54:06.893Z,94.00
2023-03-03T15:56:58.368Z,94.40
2023-03-03T15:59:57.336Z,95.60
2023-03-03T16:02:49.700Z,96.20
2023-03-03T16:05:34.546Z,96.70
2023-03-03T16:08:20.721Z,97.20
2023-03-03T16:11:26.326Z,97.90
2023-03-03T16:14:30.161Z,98.80
2023-03-03T16:17:10.562Z,98.90
2023-03-03T16:20:23.309Z,99.40
2023-03-03T16:23:22.292Z,99.80
2023-03-03T16:26:29.789Z,99.90
2023-03-03T16:29:39.396Z,99.90
2023-03-03T16:32:13.947Z,99.90
2023-03-03T16:34:55.733Z,99.90
2023-03-03T16:37:29.351Z,99.90
2023-03-03T16:40:24.181Z,99.90
2023-03-03T16:43:41.940Z,99.90
2023-03-03T16:46:34.848Z,99.90
2023-03-03T16:49:16.514Z,99.90
2023-03-03T16:52:12.318Z,99.90
2023-03-03T16:54:55.788Z,99.90
2023-03-03T16:57:45.828Z,99.90
2023-03-03T17:00:21.306Z,99.90
2023-03-03T17:02:54.279Z,99.90
2023-03-03T17:05:52.125Z,99.90
2023-03-03T17:08:38.856Z,99.90
2023-03-03T17:11:37.479Z,99.90
2023-03-03T17:14:16.017Z,99.90
2023-03-03T17:17:14.613Z,99.90
2023-03-03T17:20:33.488Z,99.90
2023-03-03T17:23:40.129Z,99.90
2023-03-03T17:26:31.071Z,99.90
2023-03-03T17:29:38.207Z,99.90
2023-03-03T17:32:42.956Z,99.90
2023-03-03T17:35:48.567Z,99.90
2023-03-03T17:38:33.344Z,99.90
2023-03-03T17:41:41.910Z,99.90
2023-03-03T17:44:50.113Z,99.90
2023-03-03T17:47:42.777Z,99.90
2023-03-03T17:50:21.531Z,99.90
2023-03-03T17:53:19.713Z,99.90
2023-03-03T17:56:13.609Z,99.90
2023-03-03T17:59:25.594Z,99.90
2023-03-03T18:02:30.366Z,99.90
2023-03-03T18:05:28.764Z,99.90
2023-03-03T18:08:26.453Z,99.90
2023-03-03T18:11:15.103Z,99.90
2023-03-03T18:14:13.982Z,99.90
2023-03-03T18:17:11.689Z,99.90
2023-03-03T18:20:28.157Z,99.90
2023-03-03T18:22:55.874Z,99.90
2023-03-03T18:25:55.099Z,99.90
2023-03-03T18:28:24.778Z,99.90
2023-03-03T18:30:59.947Z,99.90
2023-03-03T18:34:02.920Z,99.90
2023-03-03T18:36:31.827Z,99.90
2023-03-03T18:39:01.391Z,99.90
2023-03-03T18:41:33.459Z,99.90
2023-03-03T18:44:32.280Z,99.90
2023-03-03T18:46:59.225Z,99.90
2023-03-03T18:49:52.780Z,99.90
2023-03-03T18:52:30.148Z,99.90
2023-03-03T18:55:23.018Z,99.90
2023-03-03T18:58:14.927Z,99.90
2023-03-03T19:00:59.843Z,99.90
2023-03-03T19:03:31.818Z,99.90
2023-03-03T19:06:00.344Z,99.90
2023-03-03T19:08:53.962Z,99.90
2023-03-03T19:11:40.496Z,99.90
2023-03-03T19:14:33.702Z,99.90
2023-03-03T19:17:23.678Z,99.90
2023-03-03T19:20:14.269Z,99.90
2023-03-03T19:23:07.234Z,99.90
2023-03-03T19:25:34.189Z,99.90
2023-03-03T19:28:45.553Z,99.90
2023-03-03T19:31:17.273Z,99.90
2023-03-03T19:34:06.287Z,99.90
2023-03-03T19:36:55.376Z,99.90
2023-03-03T19:39:49.229Z,99.90
2023-03-03T19:43:01.744Z,99.90
2023-03-03T19:45:47.170Z,99.90
2023-03-03T19:48:27.601Z,99.90
2023-03-03T19:51:00.243Z,99.90
2023-03-03T19:54:06.603Z,99.90
2023-03-03T19:56:49.021Z,99.90
2023-03-03T19:59:36.933Z,99.90
2023-03-03T20:02:24.982Z,99.90
2023-03-03T20:05:29.665Z,99.90
2023-03-03T20:08:28.265Z,99.90
2023-03-03T20:11:25.121Z,99.90
2023-03-03T20:14:26.867Z,99.90
2023-03-03T20:17:05.300Z,99.90
2023-03-03T20:20:03.815Z,99.90
2023-03-03T20:22:58.277Z,99.90
2023-03-03T20:25:46.961Z,99.90
2023-03-03T20:28:58.057Z,99.90
2023-03-03T20:31:49.314Z,99.90
2023-03-03T20:34:57.406Z,99.90
2023-03-03T20:37:44.499Z,99.90
2023-03-03T20:40:11.262Z,99.90
2023-03-03T20:43:13.032Z,99.90
2023-03-03T20:46:07.821Z,99.90
2023-03-03T20:48:58.496Z,99.90
2023-03-03T20:51:43.069Z,99.90
2023-03-03T20:54:30.411Z,99.90
2023-03-03T20:57:21.104Z,99.90
2023-03-03T21:00:18.318Z,99.90
2023-03-03T21:03:02.246Z,99.90
2023-03-03T21:05:29.745Z,99.90
2023-03-03T21:08:03.155Z,99.90
2023-03-03T21:10:36.160Z,99.90
2023-03-03T21:13:40.834Z,99.90
2023-03-03T21:16:25.593Z,99.90
2023-03-03T21:19:11.241Z,99.90
2023-03-03T21:21:46.918Z,99.90
2023-03-03T21:24:19.586Z,99.90
2023-03-03T21:26:46.493Z,99.90
2023-03-03T21:30:02.496Z,99.90
2023-03-03T21:32:40.239Z,99.90
2023-03-03T21:35:12.945Z,99.90
2023-03-03T21:37:50.147Z,99.90
2023-03-03T21:40:25.306Z,99.90
2023-03-03T21:42:58.816Z,99.90
2023-03-03T21:45:26.866Z,99.90
2023-03-03T21:47:59.274Z,99.90
2023-03-03T21:50:31.185Z,99.90
2023-03-03T21:52:58.080Z,99.90
2023-03-03T21:55:26.643Z,99.90
2023-03-03T21:57:53.670Z,99.90
2023-03-03T22:00:21.094Z,99.90
2023-03-03T22:02:47.921Z,99.90
2023-03-03T22:05:14.890Z,99.90
2023-03-03T22:07:41.811Z,99.90
2023-03-03T22:10:09.892Z,99.90
2023-03-03T22:12:36.814Z,99.90
2023-03-03T22:15:04.278Z,99.90
2023-03-03T22:17:31.136Z,99.90
2023-03-03T22:19:57.953Z,99.90
2023-03-03T22:22:24.876Z,99.90
2023-03-03T22:24:51.777Z,99.90
2023-03-03T22:27:18.669Z,99.90
2023-03-03T22:29:45.512Z,99.90
2023-03-03T22:32:12.373Z,99.90
2023-03-03T22:34:39.499Z,99.90
2023-03-03T22:37:06.295Z,99.90
2023-03-03T22:39:33.124Z,99.90
2023-03-03T22:42:00.217Z,99.90
2023-03-03T22:44:27.048Z,99.90
2023-03-03T22:46:53.928Z,99.90
2023-03-03T22:49:20.797Z,99.90
2023-03-03T22:51:47.628Z,99.90
2023-03-03T22:54:14.492Z,99.90
2023-03-03T22:56:41.371Z,99.90
2023-03-03T22:59:08.298Z,99.90
2023-03-03T23:01:35.139Z,99.90
2023-03-03T23:04:02.060Z,99.90
2023-03-03T23:06:28.931Z,99.90
2023-03-03T23:08:55.770Z,99.90
2023-03-03T23:11:24.516Z,99.90
2023-03-03T23:13:51.338Z,99.90
2023-03-03T23:16:18.224Z,99.90
2023-03-03T23:18:45.320Z,99.90
2023-03-03T23:21:12.172Z,99.90
2023-03-03T23:23:39.070Z,99.90
2023-03-03T23:26:05.936Z,99.90
2023-03-03T23:28:32.864Z,99.90
2023-03-03T23:30:59.865Z,99.90
2023-03-03T23:33:26.784Z,99.90
2023-03-03T23:35:53.706Z,99.90
2023-03-03T23:38:20.624Z,99.90
2023-03-03T23:40:47.456Z,99.90
2023-03-03T23:43:15.006Z,99.90
2023-03-03T23:45:41.837Z,99.90
2023-03-03T23:48:08.917Z,99.90
2023-03-03T23:50:39.117Z,99.90
2023-03-03T23:53:07.362Z,99.90
2023-03-03T23:55:36.014Z,99.90
2023-03-03T23:58:03.063Z,99.90
